createdAt,value
2019-05-15T00:00:12.637Z,2.06
2019-05-15T00:02:41.080Z,2.03
2019-05-15T00:05:09.557Z,2.03
2019-05-15T00:07:39.217Z,2.05
2019-05-15T00:10:09.141Z,2.09
2019-05-15T00:12:39.606Z,2.14
2019-05-15T00:15:09.261Z,2.16
2019-05-15T00:17:39.330Z,2.16
2019-05-15T00:20:10.025Z,2.14
2019-05-15T00:22:39.068Z,2.10
2019-05-15T00:25:09.294Z,1.95
2019-05-15T00:27:38.602Z,1.75
2019-05-15T00:30:11.970Z,1.65
2019-05-15T00:32:40.401Z,1.57
2019-05-15T00:35:09.515Z,1.54
2019-05-15T00:37:38.939Z,1.54
2019-05-15T00:40:08.858Z,1.57
2019-05-15T00:42:38.423Z,1.60
2019-05-15T00:45:09.369Z,1.55
2019-05-15T00:47:39.787Z,1.48
2019-05-15T00:50:09.608Z,1.46
2019-05-15T00:52:39.151Z,1.41
2019-05-15T00:55:08.721Z,1.33
2019-05-15T00:57:39.351Z,1.28
2019-05-15T01:00:08.989Z,1.25
2019-05-15T01:02:38.770Z,1.18
2019-05-15T01:05:08.238Z,1.16
2019-05-15T01:07:38.908Z,1.19
2019-05-15T01:10:09.831Z,1.15
2019-05-15T01:12:38.242Z,1.09
2019-05-15T01:15:09.187Z,1.07
2019-05-15T01:17:39.198Z,1.03
2019-05-15T01:20:08.785Z,1.06
2019-05-15T01:22:39.289Z,1.09
2019-05-15T01:25:08.669Z,1.11
2019-05-15T01:27:38.770Z,1.07
2019-05-15T01:30:09.005Z,0.92
2019-05-15T01:32:39.374Z,0.81
2019-05-15T01:35:09.564Z,0.77
2019-05-15T01:37:39.120Z,0.74
2019-05-15T01:40:08.812Z,0.68
2019-05-15T01:42:38.618Z,0.66
2019-05-15T01:45:08.721Z,0.70
2019-05-15T01:47:38.850Z,0.68
2019-05-15T01:50:09.264Z,0.63
2019-05-15T01:52:38.918Z,0.60
2019-05-15T01:55:09.134Z,0.58
2019-05-15T01:57:38.374Z,0.56
2019-05-15T02:00:09.374Z,0.53
2019-05-15T02:02:39.094Z,0.53
2019-05-15T02:05:08.890Z,0.54
2019-05-15T02:07:39.103Z,0.54
2019-05-15T02:10:09.196Z,0.52
2019-05-15T02:12:38.702Z,0.48
2019-05-15T02:15:08.535Z,0.43
2019-05-15T02:17:39.219Z,0.38
2019-05-15T02:20:08.505Z,0.37
2019-05-15T02:22:41.971Z,0.38
2019-05-15T02:25:08.783Z,0.37
2019-05-15T02:27:39.340Z,0.35
2019-05-15T02:30:18.070Z,0.34
2019-05-15T02:32:39.544Z,0.28
2019-05-15T02:35:09.928Z,0.22
2019-05-15T02:37:40.830Z,0.17
2019-05-15T02:40:10.372Z,0.14
2019-05-15T02:42:40.378Z,0.12
2019-05-15T02:45:10.207Z,0.11
2019-05-15T02:47:39.613Z,0.13
2019-05-15T02:50:10.617Z,0.17
2019-05-15T02:52:44.492Z,0.19
2019-05-15T02:55:09.801Z,0.27
2019-05-15T02:57:39.283Z,0.34
2019-05-15T03:00:10.736Z,0.33
2019-05-15T03:02:41.133Z,0.26
2019-05-15T03:05:10.008Z,0.16
2019-05-15T03:07:40.253Z,0.07
2019-05-15T03:10:09.627Z,0.01
2019-05-15T03:12:40.815Z,-0.03
2019-05-15T03:15:09.672Z,-0.03
2019-05-15T03:17:40.295Z,-0.02
2019-05-15T03:20:10.867Z,-0.02
2019-05-15T03:22:40.500Z,-0.02
2019-05-15T03:25:10.877Z,-0.04
2019-05-15T03:27:39.963Z,-0.05
2019-05-15T03:30:13.423Z,-0.08
2019-05-15T03:32:46.378Z,-0.13
2019-05-15T03:35:14.628Z,-0.16
2019-05-15T03:37:40.189Z,-0.14
2019-05-15T03:40:10.321Z,-0.17
2019-05-15T03:42:39.822Z,-0.18
2019-05-15T03:45:10.109Z,-0.17
2019-05-15T03:47:40.137Z,-0.09
2019-05-15T03:50:09.896Z,-0.02
2019-05-15T03:52:39.445Z,0.07
2019-05-15T03:55:10.865Z,0.10
2019-05-15T03:57:40.073Z,0.11
2019-05-15T04:00:09.780Z,0.10
2019-05-15T04:02:39.560Z,0.12
2019-05-15T04:05:11.973Z,0.22
2019-05-15T04:07:39.724Z,0.39
2019-05-15T04:10:10.064Z,0.53
2019-05-15T04:12:40.430Z,0.71
2019-05-15T04:15:10.960Z,0.89
2019-05-15T04:17:40.370Z,1.05
2019-05-15T04:20:10.217Z,1.18
2019-05-15T04:22:40.116Z,1.31
2019-05-15T04:25:10.045Z,1.35
2019-05-15T04:27:40.904Z,1.43
2019-05-15T04:30:11.094Z,1.54
2019-05-15T04:32:40.612Z,1.64
2019-05-15T04:35:09.731Z,1.76
2019-05-15T04:37:40.843Z,1.88
2019-05-15T04:40:09.498Z,2.04
2019-05-15T04:42:39.782Z,2.20
2019-05-15T04:45:10.218Z,2.37
2019-05-15T04:47:39.801Z,2.56
2019-05-15T04:50:09.675Z,2.77
2019-05-15T04:52:42.438Z,2.99
2019-05-15T04:55:10.103Z,3.17
2019-05-15T04:57:40.034Z,3.35
2019-05-15T05:00:10.168Z,3.54
2019-05-15T05:02:40.026Z,3.69
2019-05-15T05:05:10.088Z,3.88
2019-05-15T05:07:39.541Z,4.07
2019-05-15T05:10:09.542Z,4.39
2019-05-15T05:12:41.510Z,5.10
2019-05-15T05:15:08.790Z,6.87
2019-05-15T05:17:39.254Z,7.86
2019-05-15T05:20:08.354Z,8.47
2019-05-15T05:22:39.338Z,8.57
2019-05-15T05:25:08.262Z,8.57
2019-05-15T05:27:38.442Z,8.56
2019-05-15T05:30:08.392Z,8.56
2019-05-15T05:32:39.030Z,9.07
2019-05-15T05:35:08.467Z,10.96
2019-05-15T05:37:39.019Z,12.61
2019-05-15T05:40:08.146Z,12.50
2019-05-15T05:42:38.926Z,11.37
2019-05-15T05:45:09.403Z,10.94
2019-05-15T05:47:38.280Z,10.65
2019-05-15T05:50:08.068Z,10.05
2019-05-15T05:52:38.881Z,9.41
2019-05-15T05:55:08.864Z,8.97
2019-05-15T05:57:38.333Z,8.75
2019-05-15T06:00:09.584Z,8.71
2019-05-15T06:02:47.374Z,8.84
2019-05-15T06:05:08.451Z,9.09
2019-05-15T06:07:38.750Z,9.33
2019-05-15T06:10:08.858Z,9.53
2019-05-15T06:12:38.841Z,9.64
2019-05-15T06:15:08.925Z,9.89
2019-05-15T06:17:39.154Z,9.99
2019-05-15T06:20:08.183Z,9.85
2019-05-15T06:22:38.661Z,9.82
2019-05-15T06:25:11.016Z,9.72
2019-05-15T06:27:38.985Z,9.70
2019-05-15T06:30:08.788Z,9.75
2019-05-15T06:32:39.826Z,9.83
2019-05-15T06:35:08.826Z,9.84
2019-05-15T06:37:39.534Z,9.92
2019-05-15T06:40:08.591Z,10.05
2019-05-15T06:42:39.426Z,10.20
2019-05-15T06:45:08.420Z,10.32
2019-05-15T06:47:39.226Z,10.43
2019-05-15T06:50:10.400Z,10.59
2019-05-15T06:52:38.832Z,10.73
2019-05-15T06:55:09.386Z,10.89
2019-05-15T06:57:39.652Z,11.02
2019-05-15T07:00:08.728Z,11.19
2019-05-15T07:02:38.219Z,11.31
2019-05-15T07:05:08.000Z,11.46
2019-05-15T07:07:38.719Z,11.68
2019-05-15T07:10:09.013Z,11.81
2019-05-15T07:12:39.269Z,11.77
2019-05-15T07:15:09.089Z,11.86
2019-05-15T07:17:39.184Z,11.94
2019-05-15T07:20:08.888Z,12.06
2019-05-15T07:22:39.064Z,12.29
2019-05-15T07:25:09.423Z,12.63
2019-05-15T07:27:38.979Z,12.74
2019-05-15T07:30:11.901Z,12.77
2019-05-15T07:32:40.085Z,13.01
2019-05-15T07:35:08.763Z,13.13
2019-05-15T07:37:38.757Z,13.29
2019-05-15T07:40:09.450Z,13.23
2019-05-15T07:42:38.888Z,13.29
2019-05-15T07:45:11.988Z,13.46
2019-05-15T07:47:40.417Z,13.56
2019-05-15T07:50:11.994Z,13.72
2019-05-15T07:52:40.802Z,13.92
2019-05-15T07:55:09.670Z,14.07
2019-05-15T07:57:39.504Z,14.21
2019-05-15T08:00:11.184Z,14.40
2019-05-15T08:02:40.007Z,14.73
2019-05-15T08:05:10.523Z,14.86
2019-05-15T08:07:39.597Z,14.91
2019-05-15T08:10:09.029Z,14.78
2019-05-15T08:12:39.163Z,14.87
2019-05-15T08:15:12.693Z,14.89
2019-05-15T08:18:00.129Z,14.81
2019-05-15T08:20:13.831Z,15.07
2019-05-15T08:22:45.766Z,15.39
2019-05-15T08:25:26.674Z,15.20
2019-05-15T08:27:43.151Z,15.18
2019-05-15T08:30:13.889Z,15.07
2019-05-15T08:32:42.372Z,15.40
2019-05-15T08:35:12.980Z,15.40
2019-05-15T08:37:41.376Z,14.93
2019-05-15T08:40:10.071Z,14.07
2019-05-15T08:42:41.701Z,14.38
2019-05-15T08:45:09.370Z,14.73
2019-05-15T08:47:38.632Z,14.85
2019-05-15T08:50:08.861Z,15.01
2019-05-15T08:52:39.345Z,15.70
2019-05-15T08:55:08.878Z,16.32
2019-05-15T08:57:38.591Z,16.86
2019-05-15T09:00:09.697Z,17.27
2019-05-15T09:02:45.110Z,17.34
2019-05-15T09:05:13.938Z,17.41
2019-05-15T09:07:42.447Z,17.67
2019-05-15T09:10:11.221Z,17.78
2019-05-15T09:12:39.696Z,18.07
2019-05-15T09:15:10.106Z,17.88
2019-05-15T09:17:39.944Z,17.50
2019-05-15T09:20:13.175Z,17.64
2019-05-15T09:22:41.854Z,17.06
2019-05-15T09:25:13.133Z,16.72
2019-05-15T09:27:42.335Z,16.77
2019-05-15T09:30:12.171Z,16.69
2019-05-15T09:32:41.337Z,16.69
2019-05-15T09:35:10.745Z,16.02
2019-05-15T09:37:39.148Z,15.52
2019-05-15T09:40:09.095Z,15.61
2019-05-15T09:42:38.858Z,15.92
2019-05-15T09:45:09.069Z,16.34
2019-05-15T09:47:39.451Z,16.60
2019-05-15T09:50:08.603Z,16.68
2019-05-15T09:52:38.844Z,16.07
2019-05-15T09:55:08.816Z,15.79
2019-05-15T09:57:38.570Z,15.67
2019-05-15T10:00:09.209Z,15.95
2019-05-15T10:02:39.321Z,16.43
2019-05-15T10:05:11.095Z,16.63
2019-05-15T10:07:40.356Z,16.28
2019-05-15T10:10:09.209Z,16.33
2019-05-15T10:12:38.737Z,16.51
2019-05-15T10:15:11.306Z,16.43
2019-05-15T10:17:39.267Z,16.34
2019-05-15T10:20:09.197Z,16.06
2019-05-15T10:22:37.930Z,16.10
2019-05-15T10:25:08.419Z,15.97
2019-05-15T10:27:39.560Z,16.28
2019-05-15T10:30:09.141Z,16.65
2019-05-15T10:32:39.573Z,16.67
2019-05-15T10:35:23.700Z,16.18
2019-05-15T10:37:39.233Z,15.69
2019-05-15T10:40:09.126Z,15.73
2019-05-15T10:42:39.712Z,16.29
2019-05-15T10:45:08.783Z,16.43
2019-05-15T10:47:38.740Z,16.38
2019-05-15T10:50:08.219Z,16.68
2019-05-15T10:52:38.242Z,16.90
2019-05-15T10:55:09.192Z,17.19
2019-05-15T10:57:43.057Z,17.45
2019-05-15T11:00:08.452Z,17.86
2019-05-15T11:02:39.416Z,17.19
2019-05-15T11:05:09.872Z,16.87
2019-05-15T11:07:39.410Z,16.23
2019-05-15T11:10:08.731Z,16.44
2019-05-15T11:12:37.581Z,16.79
2019-05-15T11:15:10.963Z,17.17
2019-05-15T11:17:38.543Z,17.28
2019-05-15T11:20:08.492Z,16.87
2019-05-15T11:22:42.375Z,16.35
2019-05-15T11:25:09.931Z,16.07
2019-05-15T11:27:39.060Z,16.00
2019-05-15T11:30:09.434Z,16.24
2019-05-15T11:32:39.183Z,16.53
2019-05-15T11:35:08.271Z,16.66
2019-05-15T11:37:43.927Z,16.60
2019-05-15T11:40:10.146Z,16.43
2019-05-15T11:42:39.447Z,16.17
2019-05-15T11:45:09.201Z,16.28
2019-05-15T11:47:39.522Z,16.35
2019-05-15T11:50:08.601Z,16.48
2019-05-15T11:52:40.167Z,16.78
2019-05-15T11:55:08.600Z,16.71
2019-05-15T11:57:43.621Z,16.44
2019-05-15T12:00:14.593Z,16.46
2019-05-15T12:02:38.662Z,16.19
2019-05-15T12:05:09.146Z,16.04
2019-05-15T12:07:38.259Z,16.44
2019-05-15T12:10:10.357Z,17.19
2019-05-15T12:12:38.473Z,17.98
2019-05-15T12:15:07.773Z,17.52
2019-05-15T12:17:38.846Z,17.00
2019-05-15T12:20:07.807Z,16.47
2019-05-15T12:22:38.946Z,16.20
2019-05-15T12:25:09.625Z,16.25
2019-05-15T12:27:40.343Z,16.79
2019-05-15T12:30:11.030Z,17.41
2019-05-15T12:32:40.463Z,17.77
2019-05-15T12:35:09.786Z,17.95
2019-05-15T12:37:40.109Z,17.48
2019-05-15T13:00:13.659Z,16.79
2019-05-15T13:02:42.067Z,16.74
2019-05-15T13:05:12.142Z,16.96
2019-05-15T13:07:40.544Z,17.21
2019-05-15T13:10:10.008Z,17.34
2019-05-15T13:12:54.107Z,17.20
2019-05-15T13:15:09.285Z,17.08
2019-05-15T13:17:38.893Z,17.28
2019-05-15T13:20:07.746Z,17.72
2019-05-15T13:22:38.735Z,18.10
2019-05-15T13:25:08.595Z,17.88
2019-05-15T13:27:38.252Z,17.69
2019-05-15T13:30:09.030Z,17.89
2019-05-15T13:32:40.704Z,17.82
2019-05-15T13:35:09.822Z,17.08
2019-05-15T13:37:39.059Z,17.45
2019-05-15T13:40:07.835Z,17.79
2019-05-15T13:42:38.767Z,17.80
2019-05-15T13:45:13.216Z,17.51
2019-05-15T13:47:38.891Z,16.98
2019-05-15T13:50:08.039Z,16.95
2019-05-15T13:52:39.038Z,16.84
2019-05-15T13:55:08.517Z,16.84
2019-05-15T13:57:38.285Z,16.87
2019-05-15T14:00:08.907Z,17.26
2019-05-15T14:02:38.722Z,17.41
2019-05-15T14:05:09.559Z,17.00
2019-05-15T14:07:48.635Z,16.83
2019-05-15T14:10:09.594Z,16.95
2019-05-15T14:12:38.514Z,17.35
2019-05-15T14:15:09.015Z,17.34
2019-05-15T14:17:38.003Z,17.08
2019-05-15T14:20:09.080Z,17.18
2019-05-15T14:22:38.981Z,17.40
2019-05-15T14:25:08.833Z,17.32
2019-05-15T14:27:39.804Z,17.49
2019-05-15T14:30:09.366Z,17.46
2019-05-15T14:32:39.414Z,17.24
2019-05-15T14:35:09.608Z,17.11
2019-05-15T14:37:38.115Z,16.92
2019-05-15T14:40:09.014Z,16.81
2019-05-15T14:42:39.711Z,16.67
2019-05-15T14:45:09.074Z,16.70
2019-05-15T14:47:38.859Z,16.80
2019-05-15T14:50:09.899Z,16.96
2019-05-15T14:52:38.879Z,16.98
2019-05-15T14:55:07.901Z,17.12
2019-05-15T14:57:39.192Z,17.39
2019-05-15T15:00:08.896Z,17.32
2019-05-15T15:02:38.978Z,17.23
2019-05-15T15:05:09.037Z,17.01
2019-05-15T15:07:38.367Z,16.80
2019-05-15T15:10:08.135Z,16.54
2019-05-15T15:12:39.746Z,16.17
2019-05-15T15:15:09.593Z,16.09
2019-05-15T15:17:38.622Z,16.01
2019-05-15T15:20:07.793Z,16.07
2019-05-15T15:22:36.190Z,15.96
2019-05-15T15:25:09.184Z,16.05
2019-05-15T15:27:38.706Z,16.08
2019-05-15T15:30:09.165Z,16.03
2019-05-15T15:32:38.275Z,15.91
2019-05-15T15:35:09.337Z,15.75
2019-05-15T15:37:38.486Z,15.77
2019-05-15T15:40:08.401Z,15.79
2019-05-15T15:42:39.449Z,15.74
2019-05-15T15:45:09.096Z,15.64
2019-05-15T15:47:38.883Z,15.52
2019-05-15T15:50:09.462Z,15.39
2019-05-15T15:52:38.814Z,15.25
2019-05-15T15:55:09.300Z,15.29
2019-05-15T15:57:39.571Z,15.36
2019-05-15T16:00:09.282Z,15.38
2019-05-15T16:02:40.666Z,15.22
2019-05-15T16:05:08.887Z,15.17
2019-05-15T16:07:38.045Z,15.21
2019-05-15T16:10:08.386Z,15.15
2019-05-15T16:12:38.892Z,15.10
2019-05-15T16:15:10.401Z,14.99
2019-05-15T16:17:38.919Z,14.92
2019-05-15T16:20:09.221Z,14.80
2019-05-15T16:22:38.318Z,14.69
2019-05-15T16:25:09.866Z,14.65
2019-05-15T16:27:38.586Z,14.66
2019-05-15T16:30:08.737Z,14.58
2019-05-15T16:32:38.915Z,14.54
2019-05-15T16:35:09.108Z,14.55
2019-05-15T16:37:38.982Z,14.57
2019-05-15T16:40:08.642Z,14.57
2019-05-15T16:42:38.488Z,14.45
2019-05-15T16:45:10.656Z,14.32
2019-05-15T16:47:39.530Z,14.27
2019-05-15T16:50:09.791Z,14.22
2019-05-15T16:52:39.044Z,14.13
2019-05-15T16:55:09.574Z,14.10
2019-05-15T16:57:38.728Z,14.08
2019-05-15T17:00:10.022Z,14.07
2019-05-15T17:02:40.159Z,14.02
2019-05-15T17:05:09.450Z,13.97
2019-05-15T17:07:38.752Z,13.89
2019-05-15T17:10:08.647Z,13.69
2019-05-15T17:12:38.738Z,13.59
2019-05-15T17:15:09.531Z,13.51
2019-05-15T17:17:38.763Z,13.45
2019-05-15T17:20:10.021Z,13.40
2019-05-15T17:22:38.715Z,13.36
2019-05-15T17:25:09.334Z,13.30
2019-05-15T17:27:37.488Z,13.21
2019-05-15T17:30:09.735Z,13.22
2019-05-15T17:32:39.263Z,13.22
2019-05-15T17:35:10.038Z,13.22
2019-05-15T17:37:38.830Z,13.19
2019-05-15T17:40:08.019Z,13.14
2019-05-15T17:42:39.084Z,13.11
2019-05-15T17:45:09.006Z,13.08
2019-05-15T17:47:38.744Z,13.04
2019-05-15T17:50:08.619Z,13.01
2019-05-15T17:52:38.845Z,12.99
2019-05-15T17:55:07.895Z,12.98
2019-05-15T17:57:38.789Z,12.92
2019-05-15T18:00:10.165Z,12.86
2019-05-15T18:02:38.119Z,12.79
2019-05-15T18:05:07.540Z,12.68
2019-05-15T18:07:35.979Z,12.54
2019-05-15T18:10:04.946Z,12.48
2019-05-15T18:12:33.360Z,12.37
2019-05-15T18:15:05.370Z,12.27
2019-05-15T18:17:33.779Z,12.22
2019-05-15T18:20:02.278Z,12.16
2019-05-15T18:22:30.956Z,12.06
2019-05-15T18:24:59.393Z,11.99
2019-05-15T18:27:27.789Z,11.93
2019-05-15T18:29:58.367Z,11.83
2019-05-15T18:32:28.485Z,11.76
2019-05-15T18:34:58.638Z,11.67
2019-05-15T18:37:28.237Z,11.59
2019-05-15T18:40:05.317Z,11.54
2019-05-15T18:42:29.247Z,11.50
2019-05-15T18:44:58.352Z,11.48
2019-05-15T18:47:28.034Z,11.42
2019-05-15T18:50:05.444Z,11.31
2019-05-15T18:52:28.759Z,11.23
2019-05-15T18:54:58.689Z,11.18
2019-05-15T18:57:26.961Z,11.15
2019-05-15T18:59:55.400Z,11.25
2019-05-15T19:02:23.878Z,11.27
2019-05-15T19:04:52.442Z,11.18
2019-05-15T19:07:20.844Z,11.04
2019-05-15T19:09:49.475Z,10.96
2019-05-15T19:12:18.096Z,10.92
2019-05-15T19:14:49.170Z,10.87
2019-05-15T19:17:18.583Z,10.81
2019-05-15T19:19:48.150Z,10.78
2019-05-15T19:22:19.049Z,10.71
2019-05-15T19:24:48.502Z,10.67
2019-05-15T19:27:18.652Z,10.64
2019-05-15T19:29:48.374Z,10.62
2019-05-15T19:32:17.726Z,10.60
2019-05-15T19:34:48.395Z,10.57
2019-05-15T19:37:18.378Z,10.54
2019-05-15T19:39:47.972Z,10.51
2019-05-15T19:42:18.179Z,10.45
2019-05-15T19:44:48.487Z,10.44
2019-05-15T19:47:18.583Z,10.39
2019-05-15T19:49:48.388Z,10.34
2019-05-15T19:52:17.892Z,10.32
2019-05-15T19:54:48.445Z,10.30
2019-05-15T19:57:18.556Z,10.26
2019-05-15T19:59:48.653Z,10.27
2019-05-15T20:02:17.986Z,10.26
2019-05-15T20:04:46.559Z,10.25
2019-05-15T20:07:14.986Z,10.24
2019-05-15T20:09:43.395Z,10.23
2019-05-15T20:12:11.835Z,10.23
2019-05-15T20:14:40.521Z,10.23
2019-05-15T20:17:08.967Z,10.21
2019-05-15T20:19:38.234Z,10.20
2019-05-15T20:22:08.035Z,10.19
2019-05-15T20:24:38.222Z,10.17
2019-05-15T20:27:08.567Z,10.15
2019-05-15T20:29:38.357Z,10.15
2019-05-15T20:32:07.100Z,10.12
2019-05-15T20:34:37.913Z,10.12
2019-05-15T20:37:06.174Z,10.09
2019-05-15T20:39:34.574Z,10.09
2019-05-15T20:42:03.002Z,10.09
2019-05-15T20:44:31.416Z,10.08
2019-05-15T20:46:59.858Z,10.07
2019-05-15T20:49:28.748Z,10.05
2019-05-15T20:51:58.243Z,10.03
2019-05-15T20:54:28.455Z,10.01
2019-05-15T20:56:58.338Z,10.00
2019-05-15T20:59:27.118Z,9.99
2019-05-15T21:01:55.545Z,9.99
2019-05-15T21:04:24.938Z,9.99
2019-05-15T21:06:53.643Z,9.98
2019-05-15T21:09:22.045Z,9.96
2019-05-15T21:11:50.469Z,9.94
2019-05-15T21:14:18.868Z,9.93
2019-05-15T21:16:48.476Z,9.92
2019-05-15T21:19:18.940Z,9.90
2019-05-15T21:21:47.947Z,9.89
2019-05-15T21:24:18.251Z,9.87
2019-05-15T21:26:48.938Z,9.87
2019-05-15T21:29:18.548Z,9.87
2019-05-15T21:31:49.042Z,9.86
2019-05-15T21:34:32.232Z,9.86
2019-05-15T21:36:48.304Z,9.84
2019-05-15T21:39:17.448Z,9.82
2019-05-15T21:41:45.850Z,9.82
2019-05-15T21:44:14.540Z,9.80
2019-05-15T21:46:43.007Z,9.79
2019-05-15T21:49:11.436Z,9.79
2019-05-15T21:51:39.832Z,9.78
2019-05-15T21:54:09.852Z,9.77
2019-05-15T21:56:38.731Z,9.75
2019-05-15T21:59:08.169Z,9.75
2019-05-15T22:01:39.501Z,9.75
2019-05-15T22:04:07.103Z,9.73
2019-05-15T22:06:35.577Z,9.74
2019-05-15T22:09:07.829Z,9.73
2019-05-15T22:11:36.696Z,9.74
2019-05-15T22:14:08.066Z,9.72
2019-05-15T22:16:36.678Z,9.71
2019-05-15T22:19:05.383Z,9.70
2019-05-15T22:21:33.783Z,9.70
2019-05-15T22:24:02.252Z,9.71
2019-05-15T22:26:30.687Z,9.70
2019-05-15T22:28:59.093Z,9.68
2019-05-15T22:31:27.699Z,9.68
2019-05-15T22:33:58.376Z,9.66
2019-05-15T22:36:28.073Z,9.63
2019-05-15T22:38:58.901Z,9.61
2019-05-15T22:41:28.478Z,9.55
2019-05-15T22:43:57.006Z,9.50
2019-05-15T22:46:25.441Z,9.48
2019-05-15T22:48:54.121Z,9.42
2019-05-15T22:51:22.549Z,9.36
2019-05-15T22:53:51.013Z,9.34
2019-05-15T22:56:19.437Z,9.33
2019-05-15T22:58:48.186Z,9.30
2019-05-15T23:01:18.723Z,9.29
2019-05-15T23:03:47.853Z,9.29
2019-05-15T23:06:17.855Z,9.28
2019-05-15T23:08:48.699Z,9.27
2019-05-15T23:11:18.292Z,9.25
2019-05-15T23:13:48.332Z,9.25
2019-05-15T23:16:18.243Z,9.26
2019-05-15T23:18:48.512Z,9.25
2019-05-15T23:21:18.334Z,9.26
2019-05-15T23:23:48.692Z,9.26
2019-05-15T23:26:17.106Z,9.27
2019-05-15T23:28:45.511Z,9.27
2019-05-15T23:31:13.937Z,9.27
2019-05-15T23:33:42.337Z,9.29
2019-05-15T23:36:10.763Z,9.32
2019-05-15T23:38:39.165Z,9.33
2019-05-15T23:41:08.224Z,9.34
2019-05-15T23:43:38.896Z,9.36
2019-05-15T23:46:07.995Z,9.39
2019-05-15T23:48:38.185Z,9.38
2019-05-15T23:51:08.536Z,9.37
2019-05-15T23:53:37.142Z,9.37
2019-05-15T23:56:05.568Z,9.37
2019-05-15T23:58:33.968Z,9.36
